Terminal Aerodrome Forecast
Issued by NWS

Home | Current Version | Previous Version | Graphics & Text | Print | Product List | Glossary On
Versions: 1 2 3 4 5 6 7 8 9 10 11 12 13
745
FTUS43 KTOP 171734
TAFFOE
TAF
KFOE 171734Z 1718/1818 10014KT P6SM SCT200
     FM180400 13014KT P6SM SCT150 WS020/18040KT
     FM180900 29016G23KT P6SM SCT020
     FM181100 30019G27KT P6SM BKN020=

USA.gov is the U.S. government's official web portal to all federal, state and local government web resources and services.